Main page
METAR-TAF:

METAR-TAF

Airports :

Ouagadougou Airport

Ouagadougou, Burkina Faso

latitude: 12-21N, longitude: 001-31W, elevation: 316 m

Current weather observation

The report was made 54 minutes ago, at 01:00 UTC
Calm wind
Temperature 23°C
Humidity 65%
Pressure 1011 hPa
Visibility: 6000 m

METAR: DFFD 260100Z 00000KT 6000 NSC 23/16 Q1011 NOSIG

Time: 01:54 (01:54 UTC)

Forecast

The report was made 2 hours and 54 minutes ago, at 23:00 UTC
Forecast valid from 26 at 00 UTC to 27 at 06 UTC
Wind 8 kt from the East/Southeast
Visibility: 8000 m
Temporary
from 26 at 06 UTC to 26 at 10 UTC
Visibility: 3500 m
haze
Temporary
from 26 at 17 UTC to 26 at 21 UTC
Visibility: 4000 m
haze

TAF: DFFD 252300Z 2600/2706 12008KT 8000 NSC TEMPO 2606/2610 3500 HZ TEMPO 2617/2621 4000 HZ

Weather observations and forecasts of more than 4000 airports (METAR and TAF reports).

The available stations are represented by yellow and red dots on the map.

Hover mouse over dot to see the name of the station.

Then click to see weather observations and forecasts.

To change the map : click on the green buttons with a black cross to zoom in, on the green button with a dash to zoom out, or on the green arrows for adjacent maps.


METAR-TAF: